Latest Weather Observations for Yulara

IDD60801

Issued at 8:01 am CST Saturday 22 July 2017 (issued every 30 minutes, with the page automatically refreshed every 10 minutes)

About weather observations | Map of weather stations | Latest weather observations for NT | Other Formats
Station Details ID: 015635 Name: YULARA AIRPORT Lat: -25.19 Lon: 130.97 Height: 492.0 m
Data from the previous 72 hours. | See also: Recent months at Yulara
Date/Time
CST
Temp
°C
App
Temp
°C
Dew
Point
°C
Rel
Hum
%
Delta-T
°C
Wind Press
QNH
hPa
Press
MSL
hPa
Rain since
9am
mm
Dir  Spd
km/h
Gust
km/h
Spd
kts
Gust
kts
22/08:00am 7.3 4.0 2.4 71 2.1 S 9 13 5 7 1021.1 1020.8 0.0
22/07:30am 5.9 2.5 1.8 75 1.7 S 9 15 5 8 1020.8 1020.6 0.0
22/07:00am 6.5 3.5 2.2 74 1.8 S 7 11 4 6 1020.5 1020.3 0.0
22/06:30am 5.6 2.3 2.4 80 1.3 SSW 9 13 5 7 1020.2 1019.9 0.0
22/06:00am 6.5 3.6 2.6 76 1.7 S 7 9 4 5 1020.2 1019.9 0.0
22/05:30am 6.7 3.5 2.8 76 1.7 S 9 11 5 6 1019.8 1019.5 0.0
22/05:00am 6.4 3.7 2.9 78 1.5 SSE 6 7 3 4 1019.6 1019.3 0.0
22/04:30am 7.2 5.4 3.3 76 1.7 ESE 2 7 1 4 1019.4 1019.1 0.0
22/04:00am 8.7 6.2 3.5 70 2.3 S 6 7 3 4 1019.4 1019.1 0.0
22/03:30am 7.7 5.1 3.4 74 1.9 S 6 9 3 5 1019.4 1019.1 0.0
22/03:00am 6.9 5.4 3.2 77 1.6 CALM 0 0 0 0 1019.5 1019.2 0.0
22/02:30am 7.7 6.2 3.2 73 2.0 CALM 0 0 0 0 1019.6 1019.3 0.0
22/02:00am 8.0 6.2 3.5 73 2.0 S 2 6 1 3 1019.8 1019.5 0.0
22/01:30am 8.0 6.2 3.3 72 2.1 S 2 7 1 4 1020.1 1019.8 0.0
22/01:00am 8.1 6.7 3.4 72 2.1 CALM 0 6 0 3 1020.3 1020.0 0.0
22/12:30am 8.6 7.1 3.2 69 2.4 CALM 0 0 0 0 1020.4 1020.2 0.0
22/12:00am 9.0 7.5 3.2 67 2.6 CALM 0 0 0 0 1020.5 1020.3 0.0
 
Date/Time
CST
Temp
°C
App
Temp
°C
Dew
Point
°C
Rel
Hum
%
Delta-T
°C
Wind Press
QNH
hPa
Press
MSL
hPa
Rain since
9am
mm
Dir  Spd
km/h
Gust
km/h
Spd
kts
Gust
kts
21/11:30pm 9.3 7.9 3.7 68 2.5 CALM 0 0 0 0 1020.5 1020.3 0.0
21/11:00pm 9.6 8.2 3.6 66 2.7 CALM 0 0 0 0 1020.6 1020.4 0.0
21/10:30pm 9.9 8.5 3.6 65 2.8 CALM 0 0 0 0 1020.5 1020.3 0.0
21/10:00pm 10.3 8.9 3.6 63 3.0 CALM 0 0 0 0 1020.4 1020.2 0.0
21/09:30pm 11.6 10.1 3.1 56 3.8 CALM 0 0 0 0 1020.3 1020.0 0.0
21/09:00pm 11.4 10.0 3.4 58 3.6 CALM 0 0 0 0 1020.3 1020.0 0.0
21/08:30pm 12.5 11.1 3.5 54 4.1 CALM 0 0 0 0 1020.0 1019.7 0.0
21/08:00pm 13.5 11.1 4.4 54 4.3 NNE 6 7 3 4 1019.9 1019.6 0.0
21/07:30pm 15.2 13.6 2.7 43 5.7 CALM 0 0 0 0 1019.4 1019.1 0.0
21/07:00pm 16.4 14.9 3.1 41 6.2 CALM 0 0 0 0 1019.1 1018.8 0.0
21/06:30pm 19.2 16.7 1.7 31 8.1 W 4 6 2 3 1018.6 1018.4 0.0
21/06:00pm 23.4 20.2 0.5 22 10.8 W 7 11 4 6 1018.3 1018.0 0.0
21/05:30pm 24.2 20.9 -0.2 20 11.4 NNW 7 15 4 8 1018.1 1017.8 0.0
21/05:00pm 25.1 21.9 0.6 20 11.7 WNW 7 13 4 7 1017.9 1017.6 0.0
21/04:30pm 25.1 21.5 0.6 20 11.7 NNE 9 19 5 10 1017.8 1017.5 0.0
21/04:00pm 24.9 20.9 0.4 20 11.6 NNW 11 17 6 9 1017.8 1017.5 0.0
21/03:30pm 25.2 21.2 0.7 20 11.7 NW 11 19 6 10 1017.8 1017.5 0.0
21/03:00pm 25.2 22.0 0.7 20 11.7 NW 7 19 4 10 1017.9 1017.6 0.0
21/02:30pm 24.6 20.2 0.2 20 11.5 NW 13 19 7 10 1018.1 1017.8 0.0
21/02:00pm 24.9 21.1 1.7 22 11.3 NW 11 19 6 10 1018.5 1018.2 0.0
21/01:30pm 24.0 19.9 2.2 24 10.6 NNW 13 20 7 11 1019.2 1018.9 0.0
21/01:00pm 23.3 19.9 1.6 24 10.4 N 9 15 5 8 1020.0 1019.7 0.0
21/12:30pm 22.8 19.2 2.8 27 9.8 NNW 11 17 6 9 1020.6 1020.4 0.0
21/12:00pm 21.9 18.2 2.6 28 9.3 NNW 11 19 6 10 1021.3 1021.0 0.0
21/11:30am 21.4 18.5 2.6 29 9.0 NNW 7 13 4 7 1021.6 1021.3 0.0
21/11:00am 20.2 18.6 2.5 31 8.4 CALM 0 7 0 4 1021.7 1021.4 0.0
21/10:30am 17.8 16.1 1.7 34 7.4 CALM 0 6 0 3 1021.8 1021.5 0.0
21/10:00am 16.2 13.3 1.5 37 6.7 ESE 6 9 3 5 1021.7 1021.4 0.0
21/09:30am 13.5 10.5 1.8 45 5.2 SE 7 9 4 5 1021.5 1021.2 0.0
21/09:00am 11.0 8.0 2.1 54 3.9 SSE 7 9 4 5 1021.3 1021.0 0.0
21/08:30am 8.1 5.3 3.0 70 2.2 S 7 9 4 5 1020.9 1020.7 0.0
21/08:00am 5.1 1.7 2.1 81 1.2 S 9 11 5 6 1020.7 1020.5 0.0
21/07:30am 4.3 0.9 1.8 84 1.0 S 9 11 5 6 1020.5 1020.3 0.0
21/07:00am 4.4 1.0 1.9 84 1.0 S 9 9 5 5 1020.2 1019.9 0.0
21/06:30am 4.6 1.2 2.0 83 1.1 S 9 9 5 5 1019.8 1019.5 0.0
21/06:00am 5.0 1.7 2.5 84 1.0 S 9 11 5 6 1019.3 1019.0 0.0
21/05:30am 5.3 1.7 2.8 84 1.1 SSE 11 11 6 6 1018.8 1018.6 0.0
21/05:00am 5.1 1.9 2.8 85 1.0 S 9 11 5 6 1018.7 1018.5 0.0
21/04:30am 5.7 2.5 3.0 83 1.1 SSW 9 13 5 7 1018.5 1018.2 0.0
21/04:00am 6.1 3.3 3.1 81 1.3 SSW 7 9 4 5 1018.4 1018.1 0.0
21/03:30am 5.9 2.6 2.5 79 1.4 SSW 9 13 5 7 1018.4 1018.1 0.0
21/03:00am 6.5 3.7 3.3 80 1.4 S 7 9 4 5 1018.4 1018.1 0.0
21/02:30am 6.2 3.4 3.2 81 1.3 S 7 9 4 5 1018.6 1018.4 0.0
21/02:20am 6.4 3.8 3.2 80 1.4 S 6 9 3 5 1018.5 1018.2 0.0
21/02:09am 6.1 4.7 3.3 82 1.2 CALM 0 0 0 0 1018.6 1018.4 0.0
21/02:00am 6.4 4.9 3.2 80 1.4 CALM 0 0 0 0 1018.6 1018.4 0.0
21/01:30am 6.6 5.2 3.6 81 1.3 CALM 0 0 0 0 1018.7 1018.5 0.0
21/01:00am 6.9 5.5 3.5 79 1.5 CALM 0 0 0 0 1018.7 1018.5 0.0
21/12:30am 8.8 7.6 4.4 74 2.0 CALM 0 0 0 0 1018.5 1018.2 0.0
21/12:00am 7.5 6.1 3.6 76 1.7 CALM 0 0 0 0 1018.7 1018.5 0.0
 
Date/Time
CST
Temp
°C
App
Temp
°C
Dew
Point
°C
Rel
Hum
%
Delta-T
°C
Wind Press
QNH
hPa
Press
MSL
hPa
Rain since
9am
mm
Dir  Spd
km/h
Gust
km/h
Spd
kts
Gust
kts
20/11:30pm 8.0 6.6 3.8 75 1.9 CALM 0 0 0 0 1018.8 1018.6 0.0
20/11:00pm 9.3 7.9 3.7 68 2.5 CALM 0 0 0 0 1019.0 1018.7 0.0
20/10:30pm 9.3 8.0 4.1 70 2.3 CALM 0 0 0 0 1018.7 1018.5 0.0
20/10:00pm 10.1 8.8 4.0 66 2.8 CALM 0 0 0 0 1018.7 1018.5 0.0
20/09:30pm 11.0 9.8 4.5 64 3.0 CALM 0 0 0 0 1018.7 1018.5 0.0
20/09:00pm 11.3 10.0 4.1 61 3.3 CALM 0 0 0 0 1018.6 1018.4 0.0
20/08:30pm 11.7 10.4 4.0 59 3.5 CALM 0 0 0 0 1018.5 1018.2 0.0
20/08:00pm 13.9 12.5 3.7 50 4.8 CALM 0 2 0 1 1018.2 1017.9 0.0
20/07:30pm 14.3 12.2 4.0 50 4.8 WSW 4 7 2 4 1017.9 1017.6 0.0
20/07:00pm 15.9 13.6 2.7 41 6.1 W 4 6 2 3 1017.6 1017.3 0.0
20/06:30pm 19.3 16.0 2.2 32 8.0 WNW 9 13 5 7 1017.3 1017.0 0.0
20/06:00pm 21.4 17.3 2.2 28 9.2 WNW 13 17 7 9 1017.0 1016.7 0.0
20/05:30pm 22.5 17.6 2.1 26 9.8 WNW 17 20 9 11 1016.8 1016.4 0.0
20/05:00pm 23.0 18.1 1.9 25 10.2 WNW 17 22 9 12 1016.6 1016.3 0.0
20/04:30pm 23.0 17.7 1.9 25 10.2 NW 19 28 10 15 1016.5 1016.2 0.0
20/04:00pm 22.8 17.5 1.8 25 10.1 NW 19 26 10 14 1016.8 1016.4 0.0
20/03:30pm 22.7 17.8 1.7 25 10.0 NW 17 22 9 12 1017.0 1016.7 0.0
20/03:00pm 22.3 17.3 1.3 25 9.9 NW 17 26 9 14 1017.2 1016.9 0.0
20/02:30pm 21.9 17.6 1.0 25 9.8 NW 13 22 7 12 1017.5 1017.2 0.0
20/02:00pm 20.7 17.1 0.5 26 9.3 NW 9 15 5 8 1017.9 1017.6 0.0
20/01:30pm 20.0 16.4 0.5 27 8.9 NNW 9 19 5 10 1018.5 1018.2 0.0
20/01:00pm 19.1 15.8 0.2 28 8.5 NNE 7 13 4 7 1019.4 1019.1 0.0
20/12:30pm 18.1 14.1 0.3 30 8.0 NNE 11 13 6 7 1020.2 1019.9 0.0
20/12:00pm 17.1 13.3 -0.6 30 7.7 N 9 13 5 7 1020.8 1020.6 0.0
20/11:30am 16.5 13.2 -0.2 32 7.3 ESE 7 13 4 7 1021.1 1020.8 0.0
20/11:00am 15.2 11.5 -0.1 35 6.6 ENE 9 15 5 8 1021.5 1021.2 0.0
20/10:30am 14.2 9.3 -0.3 37 6.2 E 15 20 8 11 1021.7 1021.4 0.0
20/10:00am 12.7 7.0 -0.5 40 5.6 E 19 24 10 13 1021.6 1021.3 0.0
20/09:30am 11.5 5.9 0.0 45 4.8 E 19 24 10 13 1021.6 1021.3 0.0
20/09:00am 9.3 4.8 0.0 52 3.8 ESE 13 20 7 11 1021.6 1021.3 0.0
20/08:30am 7.0 2.1 -0.2 60 2.9 SE 15 19 8 10 1021.4 1021.1 0.0
20/08:00am 5.4 0.9 -0.4 66 2.3 SE 13 17 7 9 1020.8 1020.6 0.0
20/07:30am 4.8 0.7 -0.4 69 2.0 SE 11 15 6 8 1020.5 1020.3 0.0
20/07:00am 5.1 0.6 -0.5 67 2.2 SE 13 17 7 9 1020.2 1019.9 0.0
20/06:30am 5.3 1.2 -0.5 66 2.3 SE 11 15 6 8 1020.1 1019.8 0.0
20/06:00am 6.5 2.0 -0.5 61 2.8 SE 13 19 7 10 1020.1 1019.8 0.0
20/05:30am 6.5 2.0 -0.5 61 2.8 SE 13 19 7 10 1019.9 1019.6 0.0
20/05:00am 6.7 2.6 -0.3 61 2.8 SE 11 15 6 8 1019.9 1019.6 0.0
20/04:30am 6.9 2.4 -0.3 60 2.9 SE 13 15 7 8 1020.2 1019.9 0.0
20/04:00am 6.4 2.6 -0.6 61 2.8 SE 9 13 5 7 1020.5 1020.3 0.0
20/03:30am 6.4 2.6 -0.6 61 2.7 SSE 9 13 5 7 1020.2 1019.9 0.0
20/03:00am 7.1 2.9 -0.8 57 3.1 SE 11 13 6 7 1019.9 1019.6 0.0
20/02:30am 8.4 4.2 -0.9 52 3.7 ESE 11 17 6 9 1020.1 1019.8 0.0
20/02:00am 7.8 3.2 -0.7 55 3.4 SE 13 17 7 9 1020.2 1019.9 0.0
20/01:30am 7.7 3.9 -1.0 54 3.4 SE 9 11 5 6 1020.7 1020.5 0.0
20/01:00am 9.0 4.8 -1.1 49 4.0 E 11 13 6 7 1020.8 1020.6 0.0
20/12:30am 9.5 5.6 -1.2 47 4.3 ESE 9 11 5 6 1021.2 1020.9 0.0
20/12:00am 10.3 6.1 -1.1 45 4.6 E 11 15 6 8 1021.5 1021.2 0.0
 
Date/Time
CST
Temp
°C
App
Temp
°C
Dew
Point
°C
Rel
Hum
%
Delta-T
°C
Wind Press
QNH
hPa
Press
MSL
hPa
Rain since
9am
mm
Dir  Spd
km/h
Gust
km/h
Spd
kts
Gust
kts
19/11:30pm 10.9 6.3 -1.2 43 4.9 E 13 17 7 9 1021.6 1021.3 0.0
19/11:00pm 11.6 7.0 -1.2 41 5.2 E 13 17 7 9 1021.7 1021.4 0.0
19/10:30pm 12.2 7.2 -1.3 39 5.5 E 15 19 8 10 1021.9 1021.6 0.0
19/10:00pm 12.6 7.5 -1.7 37 5.8 E 15 20 8 11 1022.1 1021.9 0.0
19/09:30pm 12.9 7.9 -1.4 37 5.9 ESE 15 19 8 10 1022.2 1022.0 0.0
19/09:00pm 13.2 7.8 -1.5 36 6.1 ESE 17 22 9 12 1022.2 1022.0 0.0
19/08:30pm 12.9 8.3 -0.7 39 5.7 ESE 13 17 7 9 1022.3 1022.1 0.0
19/08:00pm 13.0 8.9 -0.3 40 5.6 ESE 11 15 6 8 1022.1 1021.9 0.0
19/07:30pm 13.4 9.3 -0.3 39 5.8 ESE 11 13 6 7 1021.8 1021.5 0.0
19/07:00pm 14.6 10.5 -0.3 36 6.4 ESE 11 13 6 7 1021.6 1021.3 0.0
19/06:30pm 16.6 12.1 -0.6 31 7.5 ESE 13 19 7 10 1021.3 1021.0 0.0
19/06:00pm 18.1 12.9 -0.2 29 8.1 E 17 24 9 13 1021.2 1020.9 0.0
19/05:30pm 18.7 12.9 -0.2 28 8.4 E 20 24 11 13 1020.9 1020.7 0.0
19/05:00pm 19.0 13.4 0.1 28 8.5 ESE 19 26 10 14 1020.9 1020.7 0.0
19/04:30pm 19.4 13.8 -0.1 27 8.8 E 19 28 10 15 1021.1 1020.8 0.0
19/04:00pm 19.0 13.4 0.1 28 8.5 E 19 28 10 15 1021.3 1021.0 0.0
19/03:30pm 18.9 13.2 0.5 29 8.3 E 20 32 11 17 1021.6 1021.3 0.0
19/03:00pm 18.5 12.4 0.6 30 8.1 E 22 30 12 16 1021.9 1021.6 0.0
19/02:30pm 18.0 12.0 1.1 32 7.7 E 22 32 12 17 1022.3 1022.1 0.0
19/02:00pm 18.1 12.1 1.2 32 7.7 E 22 28 12 15 1022.8 1022.6 0.0
19/01:30pm 17.1 10.7 1.1 34 7.2 ENE 24 33 13 18 1023.4 1023.1 0.0
19/01:00pm 16.8 10.5 1.3 35 7.0 ENE 24 32 13 17 1024.1 1023.9 0.0
19/12:30pm 16.0 9.2 1.0 36 6.7 E 26 35 14 19 1024.5 1024.3 0.0
19/12:00pm 16.0 9.7 1.3 37 6.6 E 24 33 13 18 1024.9 1024.7 0.0
19/11:30am 14.8 8.8 1.0 39 6.1 E 22 32 12 17 1025.5 1025.2 0.0
19/11:00am 14.0 7.3 1.3 42 5.6 E 26 35 14 19 1026.0 1025.8 0.0
19/10:30am 13.0 6.3 1.4 45 5.1 E 26 33 14 18 1026.4 1026.2 0.0
19/10:00am 12.1 5.0 1.4 48 4.7 E 28 39 15 21 1026.5 1026.3 0.0
19/09:30am 10.4 3.7 1.5 54 3.8 E 26 33 14 18 1026.4 1026.2 0.0
19/09:00am 8.7 3.2 1.6 61 3.0 ESE 20 28 11 15 1026.3 1026.1 0.0
19/08:30am 6.3 2.0 1.0 69 2.2 ESE 13 22 7 12 1026.1 1025.9 0.0

Other Formats:

Comma delimited format used in spreadsheet applications
http://www.bom.gov.au/fwo/IDD60801/IDD60801.94462.axf

JavaScript Object Notation format (JSON) in row-major order
http://www.bom.gov.au/fwo/IDD60801/IDD60801.94462.json